Аэропорт: Витязево. Анапа

ICAO: URKA

METAR:
2020-08-13 10:30:00
URKA 131030Z 36005MPS 330V040 9999 SCT/// 28/14 Q1012 R04/010065 TEMPO 2000 TSRAGR SCT011 BKN020CB RMK QFE755/1007
METAR:
2020-08-13 07:50:00
TAF URKA 130750Z 1309/1409 35003G08MPS 9999 SCT030CB TEMPO 1309/1318 VRB09G16MPS 3100 -TSRAGR SCT016 BKN020CB